Time;durP1;ratioP1;P1;durP2;ratioP2;P2;SDS_P1;SDS_P2;PMS_P1;PMS_P2;Temp;Humidity;BMP_temperature;BMP_pressure;BME280_temperature;BME280_humidity;BME280_pressure;Samples;Min_cycle;Max_cycle;Signal;HPM_P1;HPM_P2
2024/03/04 00:01:29;;;;;;;20.60;13.18;;;5.10;99.90;;;;;;477004;249;27545;-73
2024/03/04 00:03:30;;;;;;;22.52;14.85;;;5.10;99.90;;;;;;468018;251;27480;-72
2024/03/04 00:05:34;;;;;;;18.15;12.02;;;5.10;99.90;;;;;;477002;249;28751;-71
2024/03/04 00:07:33;;;;;;;16.85;12.98;;;5.20;99.90;;;;;;468046;251;27418;-71
2024/03/04 00:09:34;;;;;;;22.90;14.90;;;5.20;99.90;;;;;;477027;249;27450;-72
2024/03/04 00:11:36;;;;;;;23.50;14.75;;;5.20;99.90;;;;;;468128;251;27434;-72
2024/03/04 00:13:37;;;;;;;18.67;12.80;;;5.20;99.90;;;;;;476961;249;27533;-71
2024/03/04 00:15:38;;;;;;;19.70;13.65;;;5.20;99.90;;;;;;468171;251;28044;-70
2024/03/04 00:17:40;;;;;;;16.00;11.63;;;5.20;99.90;;;;;;476987;249;27494;-72
2024/03/04 00:19:41;;;;;;;19.05;12.55;;;5.10;99.90;;;;;;468094;254;27500;-72
2024/03/04 00:21:42;;;;;;;24.35;12.27;;;5.10;99.90;;;;;;476907;249;27524;-72
2024/03/04 00:23:44;;;;;;;16.87;12.27;;;5.10;99.90;;;;;;468157;251;27457;-72
2024/03/04 00:25:45;;;;;;;19.77;12.85;;;5.20;99.90;;;;;;476998;249;27898;-73
2024/03/04 00:27:45;;;;;;;16.42;12.40;;;5.20;99.90;;;;;;468050;251;27427;-72
2024/03/04 00:29:47;;;;;;;17.70;12.18;;;5.30;99.90;;;;;;476969;249;27525;-72
2024/03/04 00:31:49;;;;;;;22.90;13.75;;;5.40;99.90;;;;;;468123;251;27445;-72
2024/03/04 00:33:49;;;;;;;18.45;11.57;;;5.50;99.90;;;;;;476986;249;27448;-72
2024/03/04 00:35:51;;;;;;;22.00;14.25;;;5.60;99.90;;;;;;468116;251;27952;-74
2024/03/04 00:37:52;;;;;;;21.00;13.52;;;5.70;99.90;;;;;;476958;249;27445;-73
2024/03/04 00:39:53;;;;;;;16.62;12.02;;;5.70;99.90;;;;;;468092;251;27453;-74
2024/03/04 00:41:54;;;;;;;21.73;14.40;;;5.80;99.90;;;;;;477039;249;27470;-75
2024/03/04 00:43:56;;;;;;;21.55;13.90;;;5.90;99.90;;;;;;468104;251;27527;-73
2024/03/04 00:45:57;;;;;;;23.85;14.38;;;5.90;99.90;;;;;;476978;249;28044;-74
2024/03/04 00:47:58;;;;;;;18.10;12.97;;;6.00;99.90;;;;;;468072;251;27502;-71
2024/03/04 00:50:01;;;;;;;18.30;12.70;;;6.00;99.90;;;;;;477025;249;28877;-71
2024/03/04 00:52:01;;;;;;;21.92;13.62;;;6.00;99.90;;;;;;468098;251;28832;-74
2024/03/04 00:54:02;;;;;;;21.87;13.93;;;6.10;99.90;;;;;;476995;249;27450;-73
2024/03/04 00:56:03;;;;;;;21.63;16.17;;;6.10;99.90;;;;;;468104;251;29288;-74
2024/03/04 00:58:04;;;;;;;24.53;16.17;;;6.10;99.90;;;;;;476968;249;29454;-72
2024/03/04 01:00:08;;;;;;;26.23;16.40;;;6.10;99.90;;;;;;468142;251;29409;-70
2024/03/04 01:02:07;;;;;;;32.30;19.60;;;6.00;99.90;;;;;;476887;249;27474;-74
2024/03/04 01:04:08;;;;;;;28.27;17.97;;;6.00;99.90;;;;;;468102;251;27433;-74
2024/03/04 01:06:09;;;;;;;27.23;16.48;;;6.10;99.90;;;;;;476994;249;28683;-73
2024/03/04 01:08:11;;;;;;;37.90;20.13;;;6.10;99.90;;;;;;468082;251;28018;-74
2024/03/04 01:10:12;;;;;;;32.50;18.73;;;6.20;99.90;;;;;;476985;249;28803;-73
2024/03/04 01:12:14;;;;;;;27.90;16.70;;;6.20;99.90;;;;;;468073;251;27530;-73
2024/03/04 01:14:15;;;;;;;28.07;17.40;;;6.30;99.90;;;;;;476958;249;29768;-71
2024/03/04 01:16:16;;;;;;;26.50;16.30;;;6.30;99.90;;;;;;468119;251;28437;-73
2024/03/04 01:18:17;;;;;;;27.83;17.90;;;6.30;99.90;;;;;;476956;249;27910;-72
2024/03/04 01:20:20;;;;;;;31.15;18.85;;;6.30;99.90;;;;;;468096;251;28608;-71
2024/03/04 01:22:20;;;;;;;34.85;19.15;;;6.30;99.90;;;;;;476908;249;27442;-71
2024/03/04 01:24:21;;;;;;;28.27;16.17;;;6.40;99.90;;;;;;468130;251;27868;-73
2024/03/04 01:26:23;;;;;;;30.40;17.60;;;6.40;99.90;;;;;;476991;249;28610;-72
2024/03/04 01:28:23;;;;;;;30.73;17.63;;;6.40;99.90;;;;;;468062;251;28403;-72
2024/03/04 01:30:25;;;;;;;44.83;22.67;;;6.50;99.90;;;;;;476976;249;28449;-71
2024/03/04 01:32:26;;;;;;;45.13;22.20;;;6.40;99.90;;;;;;468146;251;27932;-72
2024/03/04 01:34:27;;;;;;;34.50;19.37;;;6.40;99.90;;;;;;477026;249;27694;-72
2024/03/04 01:36:29;;;;;;;45.75;21.02;;;6.40;99.90;;;;;;468093;251;28777;-73
2024/03/04 01:38:30;;;;;;;34.03;19.73;;;6.40;99.90;;;;;;476924;249;27481;-74
2024/03/04 01:40:31;;;;;;;36.93;20.13;;;6.40;99.90;;;;;;468096;251;27899;-72
2024/03/04 01:42:32;;;;;;;32.63;19.17;;;6.40;99.90;;;;;;477028;249;28963;-73
2024/03/04 01:44:33;;;;;;;31.23;17.70;;;6.40;99.90;;;;;;468114;251;29324;-72
2024/03/04 01:46:35;;;;;;;31.77;18.20;;;6.50;99.90;;;;;;476983;249;28507;-71
2024/03/04 01:48:36;;;;;;;34.57;20.07;;;6.50;99.90;;;;;;468055;251;28391;-74
2024/03/04 01:50:37;;;;;;;32.07;19.40;;;6.50;99.90;;;;;;476982;249;27933;-71
2024/03/04 01:52:40;;;;;;;31.00;17.80;;;6.50;99.90;;;;;;468166;251;27908;-74
2024/03/04 01:54:40;;;;;;;35.63;18.07;;;6.50;99.90;;;;;;476932;249;27705;-74
2024/03/04 01:56:41;;;;;;;32.00;18.60;;;6.50;99.90;;;;;;468109;251;27872;-74
2024/03/04 01:58:42;;;;;;;40.33;21.43;;;6.50;99.90;;;;;;476941;249;27977;-74
2024/03/04 02:00:44;;;;;;;39.93;21.87;;;6.50;99.90;;;;;;468181;251;28449;-72
2024/03/04 02:02:45;;;;;;;39.43;19.87;;;6.50;99.90;;;;;;477052;249;28369;-74
2024/03/04 02:04:46;;;;;;;34.20;21.20;;;6.50;99.90;;;;;;468133;251;28832;-74
2024/03/04 02:06:47;;;;;;;42.93;21.97;;;6.50;99.90;;;;;;477035;249;27980;-71
2024/03/04 02:08:48;;;;;;;54.77;26.80;;;6.50;99.90;;;;;;468157;251;27967;-74
2024/03/04 02:10:51;;;;;;;41.67;22.73;;;6.50;99.90;;;;;;477043;249;28034;-74
2024/03/04 02:12:51;;;;;;;58.20;26.00;;;6.50;99.90;;;;;;468149;251;28908;-72
2024/03/04 02:14:52;;;;;;;44.77;24.80;;;6.50;99.90;;;;;;477025;249;28063;-72
2024/03/04 02:16:53;;;;;;;45.10;24.50;;;6.40;99.90;;;;;;468173;251;28510;-73
2024/03/04 02:18:55;;;;;;;52.20;26.30;;;6.40;99.90;;;;;;477044;249;28165;-71
2024/03/04 02:20:56;;;;;;;41.40;22.40;;;6.40;99.90;;;;;;468202;251;28979;-74
2024/03/04 02:22:57;;;;;;;45.47;24.03;;;6.40;99.90;;;;;;477042;249;28258;-72
2024/03/04 02:24:59;;;;;;;45.83;23.07;;;6.40;99.90;;;;;;468145;251;28016;-75
2024/03/04 02:27:00;;;;;;;45.07;23.40;;;6.40;99.90;;;;;;477082;249;27812;-75
2024/03/04 02:29:01;;;;;;;41.20;22.70;;;6.50;99.90;;;;;;468129;251;28079;-73
2024/03/04 02:31:02;;;;;;;45.10;25.03;;;6.50;99.90;;;;;;477035;249;27932;-74
2024/03/04 02:33:04;;;;;;;41.37;22.20;;;6.40;99.90;;;;;;468135;251;28052;-72
2024/03/04 02:35:07;;;;;;;59.07;27.63;;;6.40;99.90;;;;;;477045;249;28008;-73
2024/03/04 02:37:06;;;;;;;57.70;28.00;;;6.40;99.90;;;;;;468020;254;28684;-74
2024/03/04 02:39:11;;;;;;;47.60;26.80;;;6.30;99.90;;;;;;477029;249;27871;-71
2024/03/04 02:41:09;;;;;;;57.60;27.60;;;6.30;99.90;;;;;;467720;254;27906;-74
2024/03/04 02:43:11;;;;;;;56.50;26.10;;;6.30;99.90;;;;;;477034;249;27719;-71
2024/03/04 02:45:11;;;;;;;55.07;25.83;;;6.30;99.90;;;;;;468107;254;27915;-74
2024/03/04 02:47:12;;;;;;;47.30;24.40;;;6.30;99.90;;;;;;476967;249;28071;-74
2024/03/04 02:49:14;;;;;;;53.93;28.67;;;6.30;99.90;;;;;;468117;251;28699;-73
2024/03/04 02:51:15;;;;;;;42.77;24.53;;;6.30;99.90;;;;;;477010;249;27449;-73
2024/03/04 02:53:16;;;;;;;48.30;23.80;;;6.30;99.90;;;;;;468134;251;28413;-75
2024/03/04 02:55:17;;;;;;;37.30;22.10;;;6.40;99.90;;;;;;476894;249;28459;-71
2024/03/04 02:57:19;;;;;;;47.47;23.60;;;6.40;99.90;;;;;;468082;251;27520;-71
2024/03/04 02:59:20;;;;;;;38.50;23.47;;;6.40;99.90;;;;;;477012;249;28102;-71
2024/03/04 03:01:21;;;;;;;35.67;20.67;;;6.50;99.90;;;;;;468160;251;28130;-73
2024/03/04 03:03:23;;;;;;;37.30;19.80;;;6.50;99.90;;;;;;477025;249;27974;-71
2024/03/04 03:05:24;;;;;;;34.57;18.93;;;6.50;99.90;;;;;;468144;251;27971;-74
2024/03/04 03:07:25;;;;;;;38.33;21.83;;;6.60;99.90;;;;;;476970;249;28506;-74
2024/03/04 03:09:26;;;;;;;51.07;26.40;;;6.60;99.90;;;;;;468072;251;29804;-73
2024/03/04 03:11:27;;;;;;;46.70;24.83;;;6.60;99.90;;;;;;477039;249;28204;-74
2024/03/04 03:13:29;;;;;;;41.37;21.43;;;6.60;99.90;;;;;;468143;251;27752;-71
2024/03/04 03:15:30;;;;;;;38.60;21.23;;;6.60;99.90;;;;;;477000;249;27891;-72
2024/03/04 03:17:31;;;;;;;40.13;21.30;;;6.60;99.90;;;;;;468062;251;27819;-72
2024/03/04 03:19:33;;;;;;;37.47;20.50;;;6.60;99.90;;;;;;477028;249;28447;-75
2024/03/04 03:21:34;;;;;;;39.43;21.57;;;6.60;99.90;;;;;;468135;251;27908;-74
2024/03/04 03:23:35;;;;;;;37.93;23.23;;;6.70;99.90;;;;;;476986;249;27821;-74
2024/03/04 03:25:36;;;;;;;37.10;21.70;;;6.70;99.90;;;;;;467969;254;28352;-74
2024/03/04 03:27:37;;;;;;;34.10;20.10;;;6.70;99.90;;;;;;476964;249;28394;-73
2024/03/04 03:29:39;;;;;;;40.27;23.33;;;6.70;99.90;;;;;;468121;251;28425;-74
2024/03/04 03:31:40;;;;;;;41.30;23.30;;;6.70;99.90;;;;;;477003;249;27990;-73
2024/03/04 03:33:41;;;;;;;35.13;18.87;;;6.80;99.90;;;;;;468134;251;28170;-73
2024/03/04 03:35:42;;;;;;;30.90;18.77;;;6.80;99.90;;;;;;476995;249;27971;-73
2024/03/04 03:37:46;;;;;;;32.77;18.03;;;6.80;99.90;;;;;;468102;251;28032;-73
2024/03/04 03:39:45;;;;;;;35.83;20.43;;;6.80;99.90;;;;;;476919;249;27636;-74
2024/03/04 03:41:46;;;;;;;35.67;19.97;;;6.80;99.90;;;;;;468113;251;27999;-72
2024/03/04 03:43:48;;;;;;;50.13;25.40;;;6.80;99.90;;;;;;476996;249;28170;-73
2024/03/04 03:45:49;;;;;;;34.10;19.63;;;6.80;99.90;;;;;;468137;251;28341;-74
2024/03/04 03:47:50;;;;;;;44.50;24.47;;;6.80;99.90;;;;;;476999;249;28356;-73
2024/03/04 03:49:52;;;;;;;32.93;19.60;;;6.80;99.90;;;;;;468153;251;27926;-74
2024/03/04 03:51:52;;;;;;;40.80;23.00;;;6.80;99.90;;;;;;476990;249;27680;-73
2024/03/04 03:53:54;;;;;;;47.90;23.00;;;6.80;99.90;;;;;;467873;253;27812;-73
2024/03/04 03:55:56;;;;;;;46.17;24.90;;;6.80;99.90;;;;;;477032;249;28804;-74
2024/03/04 03:57:56;;;;;;;45.20;25.17;;;6.80;99.90;;;;;;468003;251;28118;-71
2024/03/04 03:59:58;;;;;;;36.63;21.87;;;6.80;99.90;;;;;;476950;249;28534;-73
2024/03/04 04:01:59;;;;;;;35.27;19.87;;;6.80;99.90;;;;;;468047;251;29245;-73
2024/03/04 04:04:00;;;;;;;33.47;18.80;;;6.90;99.90;;;;;;476982;249;27962;-73
2024/03/04 04:06:01;;;;;;;40.90;22.00;;;6.90;99.90;;;;;;468105;251;27573;-74
2024/03/04 04:08:03;;;;;;;37.93;22.57;;;6.80;99.90;;;;;;476909;249;27804;-73
2024/03/04 04:10:04;;;;;;;36.33;20.43;;;6.80;99.90;;;;;;468093;251;27914;-73
2024/03/04 04:12:06;;;;;;;44.53;25.40;;;6.90;99.90;;;;;;477019;249;27889;-74
2024/03/04 04:14:06;;;;;;;39.00;22.40;;;6.90;99.90;;;;;;468084;251;27498;-73
2024/03/04 04:16:08;;;;;;;38.50;21.40;;;6.90;99.90;;;;;;476978;249;28376;-73
2024/03/04 04:18:09;;;;;;;34.93;19.53;;;6.90;99.90;;;;;;468018;251;28255;-73
2024/03/04 04:20:11;;;;;;;39.80;22.97;;;7.00;99.90;;;;;;476958;249;28295;-73
2024/03/04 04:22:11;;;;;;;30.50;18.37;;;7.00;99.90;;;;;;468022;254;27969;-74
2024/03/04 04:24:13;;;;;;;34.80;19.90;;;7.00;99.90;;;;;;477012;249;27659;-73
2024/03/04 04:26:14;;;;;;;32.80;18.83;;;7.00;99.90;;;;;;468140;251;27840;-73
2024/03/04 04:28:15;;;;;;;36.20;20.10;;;6.90;99.90;;;;;;476921;249;28266;-73
2024/03/04 04:30:16;;;;;;;32.27;19.20;;;6.90;99.90;;;;;;468124;251;27734;-73
2024/03/04 04:32:18;;;;;;;37.10;20.90;;;7.00;99.90;;;;;;477030;249;28049;-73
2024/03/04 04:34:19;;;;;;;30.90;18.67;;;7.00;99.90;;;;;;468125;251;28100;-73
2024/03/04 04:36:20;;;;;;;36.30;20.53;;;7.00;99.90;;;;;;476999;249;28050;-74
2024/03/04 04:38:21;;;;;;;34.30;19.70;;;7.00;99.90;;;;;;468049;251;27954;-73
2024/03/04 04:40:23;;;;;;;30.70;18.13;;;7.00;99.90;;;;;;477037;249;27886;-74
2024/03/04 04:42:24;;;;;;;37.60;21.97;;;7.00;99.90;;;;;;468034;254;27581;-73
2024/03/04 04:44:25;;;;;;;35.80;20.93;;;7.00;99.90;;;;;;476994;249;27931;-71
2024/03/04 04:46:26;;;;;;;34.10;19.70;;;7.00;99.90;;;;;;468118;251;28000;-73
2024/03/04 04:48:28;;;;;;;36.23;19.87;;;7.00;99.90;;;;;;476968;249;28336;-75
2024/03/04 04:50:29;;;;;;;33.13;19.07;;;7.00;99.90;;;;;;468141;251;28025;-73
2024/03/04 04:52:30;;;;;;;34.00;18.83;;;7.00;99.90;;;;;;477004;249;28052;-71
2024/03/04 04:54:31;;;;;;;29.37;17.87;;;7.00;99.90;;;;;;468088;251;28250;-73
2024/03/04 04:56:33;;;;;;;34.73;20.00;;;7.00;99.90;;;;;;477020;249;28403;-73
2024/03/04 04:58:34;;;;;;;33.87;19.90;;;6.90;99.90;;;;;;468096;251;27486;-71
2024/03/04 05:00:35;;;;;;;31.37;19.63;;;6.90;99.90;;;;;;477042;249;27929;-73
2024/03/04 05:02:36;;;;;;;39.43;20.87;;;6.90;99.90;;;;;;468118;251;27597;-74
2024/03/04 05:04:38;;;;;;;35.50;19.07;;;6.90;99.90;;;;;;476982;249;27892;-74
2024/03/04 05:06:39;;;;;;;32.33;18.40;;;6.90;99.90;;;;;;468164;251;27787;-73
2024/03/04 05:08:40;;;;;;;31.40;18.23;;;6.90;99.90;;;;;;477000;249;27995;-72
2024/03/04 05:10:41;;;;;;;30.67;18.00;;;6.90;99.90;;;;;;468144;251;27997;-73
2024/03/04 05:12:43;;;;;;;38.13;21.70;;;6.80;99.90;;;;;;476997;249;28375;-74
2024/03/04 05:14:44;;;;;;;30.53;17.70;;;6.90;99.90;;;;;;468168;251;28492;-72
2024/03/04 05:16:45;;;;;;;34.13;19.30;;;6.90;99.90;;;;;;477042;249;27403;-74
2024/03/04 05:18:46;;;;;;;32.40;18.80;;;6.90;99.90;;;;;;468104;251;27953;-72
2024/03/04 05:20:48;;;;;;;34.27;19.00;;;6.90;99.90;;;;;;477042;249;27602;-71
2024/03/04 05:22:49;;;;;;;35.03;19.20;;;6.90;99.90;;;;;;468133;251;27961;-74
2024/03/04 05:24:50;;;;;;;34.93;21.23;;;6.90;99.90;;;;;;477054;249;28263;-75
2024/03/04 05:26:51;;;;;;;39.63;21.77;;;6.90;99.90;;;;;;468116;251;28010;-74
2024/03/04 05:28:53;;;;;;;41.90;22.23;;;6.90;99.90;;;;;;476927;249;28500;-72
2024/03/04 05:30:54;;;;;;;35.43;19.77;;;6.90;99.90;;;;;;468090;251;28352;-72
2024/03/04 05:32:55;;;;;;;42.83;23.13;;;6.90;99.90;;;;;;477017;249;28476;-74
2024/03/04 05:34:57;;;;;;;33.93;18.20;;;6.90;99.90;;;;;;468135;251;28116;-72
2024/03/04 05:36:58;;;;;;;31.03;18.90;;;6.90;99.90;;;;;;477001;249;27764;-72
2024/03/04 05:39:00;;;;;;;31.50;18.90;;;6.90;99.90;;;;;;468030;251;27938;-74
2024/03/04 05:41:00;;;;;;;34.27;19.30;;;7.00;99.90;;;;;;476982;249;28025;-72
2024/03/04 05:43:02;;;;;;;35.20;20.70;;;7.00;99.90;;;;;;468134;251;27918;-73
2024/03/04 05:45:03;;;;;;;29.13;17.97;;;7.00;99.90;;;;;;477006;249;27961;-71
2024/03/04 05:47:04;;;;;;;32.57;17.50;;;7.10;99.90;;;;;;468098;251;28463;-74
2024/03/04 05:49:06;;;;;;;32.73;18.83;;;7.00;99.90;;;;;;476939;249;28391;-71
2024/03/04 05:51:07;;;;;;;29.27;17.60;;;7.10;99.90;;;;;;468125;251;28682;-72
2024/03/04 05:53:08;;;;;;;27.40;17.20;;;7.10;99.90;;;;;;476892;249;27881;-71
2024/03/04 05:55:09;;;;;;;31.40;18.83;;;7.10;99.90;;;;;;468109;251;27561;-72
2024/03/04 05:57:10;;;;;;;29.43;17.73;;;7.10;99.90;;;;;;476936;249;27406;-71
2024/03/04 05:59:12;;;;;;;29.80;17.53;;;7.00;99.90;;;;;;468114;251;28027;-74
2024/03/04 06:01:13;;;;;;;33.97;17.93;;;7.10;99.90;;;;;;477014;249;28026;-75
2024/03/04 06:03:14;;;;;;;31.10;18.30;;;7.10;99.90;;;;;;468105;251;28619;-74
2024/03/04 06:05:15;;;;;;;28.60;16.83;;;7.10;99.90;;;;;;476976;249;28343;-74
2024/03/04 06:07:17;;;;;;;30.60;17.27;;;7.10;99.90;;;;;;468059;253;29070;-73
2024/03/04 06:09:18;;;;;;;28.97;17.60;;;7.10;99.90;;;;;;477011;249;28381;-72
2024/03/04 06:11:19;;;;;;;26.53;16.00;;;7.00;99.90;;;;;;468121;251;27871;-72
2024/03/04 06:13:20;;;;;;;32.80;18.13;;;7.10;99.90;;;;;;476974;249;27888;-71
2024/03/04 06:15:22;;;;;;;27.27;16.67;;;7.10;99.90;;;;;;468110;251;28196;-74
2024/03/04 06:17:23;;;;;;;27.43;16.80;;;7.10;99.90;;;;;;476983;249;27900;-75
2024/03/04 06:19:24;;;;;;;27.63;15.63;;;7.10;99.90;;;;;;468124;251;27761;-74
2024/03/04 06:21:26;;;;;;;34.80;19.73;;;7.10;99.90;;;;;;476996;249;28081;-74
2024/03/04 06:23:27;;;;;;;37.60;19.80;;;7.10;99.90;;;;;;468082;251;28248;-74
2024/03/04 06:25:28;;;;;;;27.83;16.60;;;7.10;99.90;;;;;;477003;249;28585;-73
2024/03/04 06:27:29;;;;;;;28.10;16.77;;;7.00;99.90;;;;;;468108;251;28298;-75
2024/03/04 06:29:30;;;;;;;29.50;18.30;;;7.10;99.90;;;;;;477021;249;27626;-73
2024/03/04 06:31:32;;;;;;;24.13;16.07;;;7.00;99.90;;;;;;468113;251;28086;-73
2024/03/04 06:33:33;;;;;;;27.37;17.63;;;7.10;99.90;;;;;;476960;249;27925;-73
2024/03/04 06:35:34;;;;;;;29.27;17.13;;;7.10;99.90;;;;;;468129;251;27800;-73
2024/03/04 06:37:36;;;;;;;29.07;17.13;;;7.10;99.90;;;;;;476970;249;27848;-74
2024/03/04 06:39:37;;;;;;;30.73;19.17;;;7.10;99.90;;;;;;468076;251;27911;-73
2024/03/04 06:41:38;;;;;;;27.17;16.10;;;7.20;99.90;;;;;;476977;249;28117;-73
2024/03/04 06:43:39;;;;;;;33.70;16.37;;;7.20;99.90;;;;;;468153;251;28608;-75
2024/03/04 06:45:40;;;;;;;50.23;23.40;;;7.20;99.90;;;;;;477049;249;28364;-73
2024/03/04 06:47:42;;;;;;;32.00;18.80;;;7.20;99.90;;;;;;468111;251;27676;-74
2024/03/04 06:49:44;;;;;;;34.87;20.60;;;7.20;99.90;;;;;;477004;249;27928;-73
2024/03/04 06:51:44;;;;;;;26.43;16.30;;;7.20;99.90;;;;;;468088;251;27672;-73
2024/03/04 06:53:45;;;;;;;29.63;17.67;;;7.20;99.90;;;;;;477024;249;27914;-73
2024/03/04 06:55:47;;;;;;;28.97;17.57;;;7.30;99.90;;;;;;468130;251;27985;-73
2024/03/04 06:57:49;;;;;;;32.20;18.23;;;7.30;99.90;;;;;;476981;249;27555;-73
2024/03/04 06:59:49;;;;;;;33.13;19.43;;;7.30;99.90;;;;;;468089;251;28472;-73
2024/03/04 07:01:50;;;;;;;35.13;21.30;;;7.30;99.90;;;;;;477072;249;28430;-73
2024/03/04 07:03:53;;;;;;;34.47;18.87;;;7.20;99.90;;;;;;468137;251;28295;-73
2024/03/04 07:05:53;;;;;;;36.17;18.30;;;7.20;99.90;;;;;;476975;249;27557;-73
2024/03/04 07:07:54;;;;;;;32.00;17.90;;;7.20;99.90;;;;;;468097;251;28021;-73
2024/03/04 07:09:55;;;;;;;29.63;15.30;;;7.20;99.90;;;;;;476977;249;27911;-73
2024/03/04 07:11:57;;;;;;;25.73;16.53;;;7.10;99.90;;;;;;468172;251;27799;-73
2024/03/04 07:13:58;;;;;;;28.50;16.03;;;7.30;99.90;;;;;;477011;249;27852;-73
2024/03/04 07:15:59;;;;;;;26.40;16.60;;;7.30;99.90;;;;;;468116;251;27785;-73
2024/03/04 07:18:01;;;;;;;26.90;16.70;;;7.30;99.90;;;;;;476956;249;27876;-73
2024/03/04 07:20:02;;;;;;;35.70;16.60;;;7.30;99.90;;;;;;468133;251;28438;-74
2024/03/04 07:22:03;;;;;;;29.73;16.77;;;7.30;99.90;;;;;;477028;249;28023;-73
2024/03/04 07:24:05;;;;;;;28.23;17.07;;;7.40;99.90;;;;;;468133;251;27938;-74
2024/03/04 07:26:06;;;;;;;28.23;16.10;;;7.30;99.90;;;;;;476986;249;28005;-73
2024/03/04 07:28:07;;;;;;;26.13;16.37;;;7.40;99.90;;;;;;468100;251;28013;-73
2024/03/04 07:30:08;;;;;;;28.43;17.60;;;7.40;99.90;;;;;;477013;249;27667;-74
2024/03/04 07:32:09;;;;;;;31.67;18.13;;;7.40;99.90;;;;;;468098;251;28269;-73
2024/03/04 07:34:11;;;;;;;30.00;17.13;;;7.40;99.90;;;;;;476959;249;28461;-74
2024/03/04 07:36:13;;;;;;;29.50;17.50;;;7.40;99.90;;;;;;468103;251;29099;-73
2024/03/04 07:38:13;;;;;;;26.97;16.27;;;7.50;99.90;;;;;;476929;249;27564;-72
2024/03/04 07:40:14;;;;;;;30.60;17.90;;;7.40;99.90;;;;;;468105;251;27961;-74
2024/03/04 07:42:16;;;;;;;29.53;18.10;;;7.50;99.90;;;;;;476992;249;27519;-73
2024/03/04 07:44:20;;;;;;;30.87;19.13;;;7.50;99.90;;;;;;468079;251;27576;-74
2024/03/04 07:46:18;;;;;;;32.63;17.40;;;7.50;99.90;;;;;;468382;254;27836;-75
2024/03/04 07:48:20;;;;;;;32.03;18.70;;;7.60;99.90;;;;;;476944;249;28428;-73
2024/03/04 07:50:21;;;;;;;31.00;17.97;;;7.60;99.90;;;;;;468114;251;28319;-73
2024/03/04 07:52:22;;;;;;;42.93;22.57;;;7.70;99.90;;;;;;476979;249;27773;-73
2024/03/04 07:54:23;;;;;;;36.87;20.80;;;7.70;99.90;;;;;;468077;251;27696;-73
2024/03/04 07:56:24;;;;;;;39.60;21.73;;;7.70;99.90;;;;;;477031;249;27542;-73
2024/03/04 07:58:26;;;;;;;47.43;27.17;;;7.70;99.90;;;;;;468072;251;27787;-73
2024/03/04 08:00:27;;;;;;;40.33;22.40;;;7.70;99.90;;;;;;476985;249;27719;-73
2024/03/04 08:02:28;;;;;;;38.27;21.87;;;7.80;99.90;;;;;;468118;251;27784;-72
2024/03/04 08:04:29;;;;;;;34.87;20.10;;;7.80;99.90;;;;;;477031;249;28172;-73
2024/03/04 08:06:32;;;;;;;36.73;20.20;;;7.80;99.90;;;;;;468172;251;28347;-74
2024/03/04 08:08:32;;;;;;;32.37;19.53;;;7.80;99.90;;;;;;476905;249;27942;-73
2024/03/04 08:10:34;;;;;;;35.47;20.60;;;7.90;99.90;;;;;;468126;251;27970;-73
2024/03/04 08:12:34;;;;;;;36.87;20.50;;;7.90;99.90;;;;;;477048;249;27782;-75
2024/03/04 08:14:40;;;;;;;35.10;20.23;;;8.00;99.90;;;;;;468151;251;28052;-73
2024/03/04 08:16:40;;;;;;;38.23;19.63;;;7.90;99.90;;;;;;476982;249;27888;-74
2024/03/04 08:18:41;;;;;;;32.53;18.20;;;7.90;99.90;;;;;;468052;251;28530;-73
2024/03/04 08:20:43;;;;;;;35.37;20.50;;;7.90;99.90;;;;;;477048;249;28469;-73
2024/03/04 08:22:44;;;;;;;34.20;20.43;;;7.90;99.90;;;;;;468160;251;28004;-73
2024/03/04 08:24:45;;;;;;;37.40;21.67;;;7.80;99.90;;;;;;477048;249;27997;-73
2024/03/04 08:26:46;;;;;;;42.03;23.70;;;7.80;99.90;;;;;;468169;251;27986;-73
2024/03/04 08:28:47;;;;;;;38.33;21.60;;;7.70;99.90;;;;;;476967;249;27570;-74
2024/03/04 08:30:49;;;;;;;42.03;23.63;;;7.80;99.90;;;;;;468185;251;28322;-75
2024/03/04 08:32:53;;;;;;;44.20;22.77;;;7.90;99.90;;;;;;477024;249;28017;-73
2024/03/04 08:34:54;;;;;;;41.77;21.17;;;7.90;99.90;;;;;;468131;251;27977;-73
2024/03/04 08:36:55;;;;;;;46.93;23.67;;;7.90;99.90;;;;;;476999;249;27808;-73
2024/03/04 08:38:56;;;;;;;45.10;23.70;;;7.90;99.90;;;;;;468065;251;27917;-73
2024/03/04 08:40:58;;;;;;;45.60;24.70;;;7.90;99.90;;;;;;477010;249;28377;-73
2024/03/04 08:42:59;;;;;;;53.50;26.97;;;7.90;99.90;;;;;;468136;251;28520;-74
2024/03/04 08:45:00;;;;;;;47.87;23.53;;;7.80;99.90;;;;;;477022;249;27859;-73
2024/03/04 08:47:02;;;;;;;55.80;26.03;;;7.90;99.90;;;;;;468089;251;27953;-73
2024/03/04 08:49:04;;;;;;;47.70;25.60;;;7.90;99.90;;;;;;476959;249;27937;-73
2024/03/04 08:51:04;;;;;;;57.10;30.07;;;7.90;99.90;;;;;;468119;251;27914;-74
2024/03/04 08:53:05;;;;;;;57.13;28.17;;;8.00;99.90;;;;;;477008;249;27967;-73
2024/03/04 08:55:07;;;;;;;55.27;28.27;;;8.00;99.90;;;;;;468120;251;27858;-73
2024/03/04 08:57:09;;;;;;;55.67;29.43;;;8.00;99.90;;;;;;476924;249;27925;-74
2024/03/04 08:59:09;;;;;;;53.80;26.03;;;8.00;99.90;;;;;;468111;251;28215;-74
2024/03/04 09:01:11;;;;;;;58.40;27.47;;;8.00;99.90;;;;;;476830;249;28487;-73
2024/03/04 09:03:12;;;;;;;52.43;26.03;;;8.00;99.90;;;;;;468141;251;27921;-73
2024/03/04 09:05:13;;;;;;;55.27;29.03;;;8.00;99.90;;;;;;476974;249;27931;-73
2024/03/04 09:07:14;;;;;;;49.17;25.47;;;8.00;99.90;;;;;;468086;251;27879;-73
2024/03/04 09:09:15;;;;;;;53.70;27.53;;;8.10;99.90;;;;;;477030;249;27643;-74
2024/03/04 09:11:17;;;;;;;57.87;26.70;;;8.10;99.90;;;;;;468155;251;27916;-74
2024/03/04 09:13:19;;;;;;;53.97;27.43;;;8.10;99.90;;;;;;476966;249;27942;-73
2024/03/04 09:15:20;;;;;;;59.87;28.93;;;8.10;99.90;;;;;;468051;254;27783;-73
2024/03/04 09:17:21;;;;;;;53.77;27.50;;;8.10;99.90;;;;;;476955;249;28519;-74
2024/03/04 09:19:22;;;;;;;57.73;29.23;;;8.10;99.90;;;;;;468132;251;28635;-74
2024/03/04 09:21:24;;;;;;;60.13;27.70;;;8.10;99.90;;;;;;476981;249;27788;-72
2024/03/04 09:23:24;;;;;;;55.10;28.03;;;8.10;99.90;;;;;;468056;251;27982;-74
2024/03/04 09:25:25;;;;;;;47.77;25.20;;;8.20;99.90;;;;;;477028;249;27572;-73
2024/03/04 09:27:27;;;;;;;51.13;25.27;;;8.20;99.90;;;;;;468087;251;27928;-73
2024/03/04 09:29:28;;;;;;;44.33;23.00;;;8.30;99.90;;;;;;476963;249;27927;-72
2024/03/04 09:31:29;;;;;;;50.83;25.33;;;8.40;99.90;;;;;;468097;251;28400;-73
2024/03/04 09:33:30;;;;;;;46.67;23.87;;;8.30;99.90;;;;;;476965;249;28467;-73
2024/03/04 09:35:32;;;;;;;42.67;22.57;;;8.40;99.90;;;;;;468170;251;28480;-75
2024/03/04 09:37:33;;;;;;;48.43;23.53;;;8.30;99.90;;;;;;476950;249;28015;-73
2024/03/04 09:39:34;;;;;;;54.37;26.50;;;8.40;99.90;;;;;;468066;251;27962;-73
2024/03/04 09:41:36;;;;;;;50.93;27.77;;;8.50;99.90;;;;;;476959;249;27973;-73
2024/03/04 09:43:37;;;;;;;51.63;25.87;;;8.30;99.90;;;;;;468110;251;27732;-72
2024/03/04 09:45:38;;;;;;;45.90;25.00;;;8.30;99.90;;;;;;476928;249;27664;-74
2024/03/04 09:47:40;;;;;;;52.97;25.97;;;8.30;99.90;;;;;;468105;251;27865;-73
2024/03/04 09:49:40;;;;;;;43.73;23.77;;;8.20;99.90;;;;;;476942;249;27988;-74
2024/03/04 09:51:42;;;;;;;43.67;23.60;;;8.30;99.90;;;;;;468134;251;28371;-73
2024/03/04 09:53:43;;;;;;;45.90;24.73;;;8.30;99.90;;;;;;476903;249;28181;-73
2024/03/04 09:55:44;;;;;;;46.20;23.60;;;8.40;99.90;;;;;;468109;251;27942;-74
2024/03/04 09:57:46;;;;;;;39.73;22.83;;;8.50;99.90;;;;;;476936;249;27871;-73
2024/03/04 09:59:47;;;;;;;45.40;24.17;;;8.50;99.90;;;;;;468052;251;27830;-73
2024/03/04 10:01:48;;;;;;;51.47;27.13;;;8.50;99.90;;;;;;477021;249;28072;-75
2024/03/04 10:03:49;;;;;;;59.47;30.00;;;8.40;99.90;;;;;;468097;251;27916;-73
2024/03/04 10:05:50;;;;;;;48.70;24.63;;;8.20;99.90;;;;;;476981;249;27868;-74
2024/03/04 10:07:52;;;;;;;45.13;24.73;;;8.20;99.90;;;;;;468085;251;28470;-72
2024/03/04 10:09:53;;;;;;;46.00;25.20;;;8.20;99.90;;;;;;477018;249;28434;-74
2024/03/04 10:11:54;;;;;;;40.27;23.73;;;8.30;99.90;;;;;;468139;251;28535;-73
2024/03/04 10:13:55;;;;;;;37.80;21.87;;;8.30;99.90;;;;;;476967;249;27882;-73
2024/03/04 10:15:57;;;;;;;46.50;23.33;;;8.40;99.90;;;;;;468078;251;28097;-73
2024/03/04 10:17:58;;;;;;;49.50;25.97;;;8.40;99.90;;;;;;476957;249;27430;-73
2024/03/04 10:19:59;;;;;;;47.13;25.00;;;8.20;99.90;;;;;;468154;251;27999;-73
2024/03/04 10:22:01;;;;;;;60.73;27.20;;;8.20;99.90;;;;;;477036;249;28097;-74